sensor_id;sensor_type;location;lat;lon;timestamp;pressure;altitude;pressure_sealevel;temperature;humidity
9899;BME280;4988;49.238;6.698;2023-03-20T00:01:22;99450.44;;;8.55;100.00
9899;BME280;4988;49.238;6.698;2023-03-20T00:03:48;99451.28;;;8.57;100.00
9899;BME280;4988;49.238;6.698;2023-03-20T00:06:21;99455.88;;;8.51;100.00
9899;BME280;4988;49.238;6.698;2023-03-20T00:08:50;99455.88;;;8.51;100.00
9899;BME280;4988;49.238;6.698;2023-03-20T00:11:32;99457.50;;;8.56;100.00
9899;BME280;4988;49.238;6.698;2023-03-20T00:14:06;99451.28;;;8.57;100.00
9899;BME280;4988;49.238;6.698;2023-03-20T00:16:34;99446.81;;;8.57;100.00
9899;BME280;4988;49.238;6.698;2023-03-20T00:19:01;99446.06;;;8.53;100.00
9899;BME280;4988;49.238;6.698;2023-03-20T00:21:27;99439.13;;;8.49;100.00
9899;BME280;4988;49.238;6.698;2023-03-20T00:23:54;99446.06;;;8.53;100.00
9899;BME280;4988;49.238;6.698;2023-03-20T00:26:24;99440.91;;;8.49;100.00
9899;BME280;4988;49.238;6.698;2023-03-20T00:28:51;99441.78;;;8.49;100.00
9899;BME280;4988;49.238;6.698;2023-03-20T00:31:22;99446.22;;;8.49;100.00
9899;BME280;4988;49.238;6.698;2023-03-20T00:33:48;99443.31;;;8.57;100.00
9899;BME280;4988;49.238;6.698;2023-03-20T00:36:14;99447.78;;;8.55;100.00
9899;BME280;4988;49.238;6.698;2023-03-20T00:38:39;99454.75;;;8.59;100.00
9899;BME280;4988;49.238;6.698;2023-03-20T00:41:19;99452.25;;;8.54;100.00
9899;BME280;4988;49.238;6.698;2023-03-20T00:43:47;99460.19;;;8.54;100.00
9899;BME280;4988;49.238;6.698;2023-03-20T00:46:13;99460.41;;;8.48;100.00
9899;BME280;4988;49.238;6.698;2023-03-20T00:48:40;99456.06;;;8.44;100.00
9899;BME280;4988;49.238;6.698;2023-03-20T00:51:07;99453.28;;;8.48;100.00
9899;BME280;4988;49.238;6.698;2023-03-20T00:53:32;99453.41;;;8.44;100.00
9899;BME280;4988;49.238;6.698;2023-03-20T00:55:58;99463.16;;;8.43;100.00
9899;BME280;4988;49.238;6.698;2023-03-20T00:58:23;99459.50;;;8.47;100.00
9899;BME280;4988;49.238;6.698;2023-03-20T01:00:49;99458.59;;;8.48;100.00
9899;BME280;4988;49.238;6.698;2023-03-20T01:03:23;99457.00;;;8.43;100.00
9899;BME280;4988;49.238;6.698;2023-03-20T01:05:49;99462.31;;;8.43;100.00
9899;BME280;4988;49.238;6.698;2023-03-20T01:08:23;99474.81;;;8.39;100.00
9899;BME280;4988;49.238;6.698;2023-03-20T01:10:53;99472.16;;;8.37;100.00
9899;BME280;4988;49.238;6.698;2023-03-20T01:13:26;99477.44;;;8.39;100.00
9899;BME280;4988;49.238;6.698;2023-03-20T01:15:54;99484.63;;;8.35;100.00
9899;BME280;4988;49.238;6.698;2023-03-20T01:18:21;99481.00;;;8.38;100.00
9899;BME280;4988;49.238;6.698;2023-03-20T01:20:47;99481.00;;;8.38;100.00
9899;BME280;4988;49.238;6.698;2023-03-20T01:23:14;99494.34;;;8.36;100.00
9899;BME280;4988;49.238;6.698;2023-03-20T01:25:40;99489.03;;;8.36;100.00
9899;BME280;4988;49.238;6.698;2023-03-20T01:28:19;99493.97;;;8.49;100.00
9899;BME280;4988;49.238;6.698;2023-03-20T01:30:45;99499.34;;;8.46;100.00
9899;BME280;4988;49.238;6.698;2023-03-20T01:33:21;99495.81;;;8.45;100.00
9899;BME280;4988;49.238;6.698;2023-03-20T01:35:48;99495.00;;;8.43;100.00
9899;BME280;4988;49.238;6.698;2023-03-20T01:38:18;99495.81;;;8.47;100.00
9899;BME280;4988;49.238;6.698;2023-03-20T01:40:57;99499.44;;;8.43;100.00
9899;BME280;4988;49.238;6.698;2023-03-20T01:43:26;99500.44;;;8.38;100.00
9899;BME280;4988;49.238;6.698;2023-03-20T01:45:59;99504.19;;;8.33;100.00
9899;BME280;4988;49.238;6.698;2023-03-20T01:51:18;99506.00;;;8.31;100.00
9899;BME280;4988;49.238;6.698;2023-03-20T01:53:47;99500.69;;;8.31;100.00
9899;BME280;4988;49.238;6.698;2023-03-20T01:56:14;99511.25;;;8.32;100.00
9899;BME280;4988;49.238;6.698;2023-03-20T01:58:58;99510.38;;;8.32;100.00
9899;BME280;4988;49.238;6.698;2023-03-20T02:01:25;99512.16;;;8.31;100.00
9899;BME280;4988;49.238;6.698;2023-03-20T02:03:52;99509.56;;;8.30;100.00
9899;BME280;4988;49.238;6.698;2023-03-20T02:06:21;99514.97;;;8.27;100.00
9899;BME280;4988;49.238;6.698;2023-03-20T02:08:50;99513.03;;;8.32;100.00
9899;BME280;4988;49.238;6.698;2023-03-20T02:11:18;99513.91;;;8.32;100.00
9899;BME280;4988;49.238;6.698;2023-03-20T02:13:44;99511.34;;;8.29;100.00
9899;BME280;4988;49.238;6.698;2023-03-20T02:16:12;99510.44;;;8.30;100.00
9899;BME280;4988;49.238;6.698;2023-03-20T02:18:41;99505.94;;;8.32;100.00
9899;BME280;4988;49.238;6.698;2023-03-20T02:26:45;99505.81;;;8.37;100.00
9899;BME280;4988;49.238;6.698;2023-03-20T02:38:05;99504.75;;;8.43;100.00
9899;BME280;4988;49.238;6.698;2023-03-20T02:49:00;99507.75;;;8.60;100.00
9899;BME280;4988;49.238;6.698;2023-03-20T02:54:25;99492.41;;;8.70;100.00
9899;BME280;4988;49.238;6.698;2023-03-20T02:57:03;99492.63;;;8.64;100.00
9899;BME280;4988;49.238;6.698;2023-03-20T03:02:02;99505.97;;;8.61;100.00
9899;BME280;4988;49.238;6.698;2023-03-20T03:04:40;99490.97;;;8.60;100.00
9899;BME280;4988;49.238;6.698;2023-03-20T03:07:08;99492.69;;;8.61;100.00
9899;BME280;4988;49.238;6.698;2023-03-20T03:09:40;99498.88;;;8.61;100.00
9899;BME280;4988;49.238;6.698;2023-03-20T03:12:13;99506.13;;;8.56;100.00
9899;BME280;4988;49.238;6.698;2023-03-20T03:14:59;99515.66;;;8.62;100.00
9899;BME280;4988;49.238;6.698;2023-03-20T03:17:29;99506.94;;;8.58;100.00
9899;BME280;4988;49.238;6.698;2023-03-20T03:20:00;99510.63;;;8.54;100.00
9899;BME280;4988;49.238;6.698;2023-03-20T03:22:26;99504.47;;;8.52;100.00
9899;BME280;4988;49.238;6.698;2023-03-20T03:24:53;99494.56;;;8.59;100.00
9899;BME280;4988;49.238;6.698;2023-03-20T03:27:22;99487.88;;;8.74;100.00
9899;BME280;4988;49.238;6.698;2023-03-20T03:29:53;99476.28;;;8.76;100.00
9899;BME280;4988;49.238;6.698;2023-03-20T03:32:31;99479.59;;;8.83;100.00
9899;BME280;4988;49.238;6.698;2023-03-20T03:34:59;99485.72;;;8.85;100.00
9899;BME280;4988;49.238;6.698;2023-03-20T03:40:35;99505.25;;;8.56;100.00
9899;BME280;4988;49.238;6.698;2023-03-20T03:43:12;99502.53;;;8.57;100.00
9899;BME280;4988;49.238;6.698;2023-03-20T03:45:52;99490.22;;;8.56;100.00
9899;BME280;4988;49.238;6.698;2023-03-20T03:48:42;99486.41;;;8.63;100.00
9899;BME280;4988;49.238;6.698;2023-03-20T03:51:17;99496.25;;;8.60;100.00
9899;BME280;4988;49.238;6.698;2023-03-20T03:53:53;99503.50;;;8.55;100.00
9899;BME280;4988;49.238;6.698;2023-03-20T03:56:21;99515.09;;;8.52;100.00
9899;BME280;4988;49.238;6.698;2023-03-20T03:58:51;99514.28;;;8.50;100.00
9899;BME280;4988;49.238;6.698;2023-03-20T04:01:19;99513.31;;;8.52;100.00
9899;BME280;4988;49.238;6.698;2023-03-20T04:03:49;99513.34;;;8.51;100.00
9899;BME280;4988;49.238;6.698;2023-03-20T04:06:16;99518.03;;;8.43;100.00
9899;BME280;4988;49.238;6.698;2023-03-20T04:08:42;99521.66;;;8.38;100.00
9899;BME280;4988;49.238;6.698;2023-03-20T04:11:14;99517.44;;;8.33;100.00
9899;BME280;4988;49.238;6.698;2023-03-20T04:13:40;99520.22;;;8.28;100.00
9899;BME280;4988;49.238;6.698;2023-03-20T04:16:11;99510.34;;;8.33;100.00
9899;BME280;4988;49.238;6.698;2023-03-20T04:18:38;99508.59;;;8.32;100.00
9899;BME280;4988;49.238;6.698;2023-03-20T04:21:04;99506.66;;;8.37;100.00
9899;BME280;4988;49.238;6.698;2023-03-20T04:23:30;99512.84;;;8.38;100.00
9899;BME280;4988;49.238;6.698;2023-03-20T04:25:55;99508.78;;;8.26;100.00
9899;BME280;4988;49.238;6.698;2023-03-20T04:28:20;99516.88;;;8.21;100.00
9899;BME280;4988;49.238;6.698;2023-03-20T04:30:54;99521.31;;;8.21;100.00
9899;BME280;4988;49.238;6.698;2023-03-20T04:33:20;99523.25;;;8.16;100.00
9899;BME280;4988;49.238;6.698;2023-03-20T04:35:45;99530.41;;;8.12;100.00
9899;BME280;4988;49.238;6.698;2023-03-20T04:38:11;99530.66;;;8.04;100.00
9899;BME280;4988;49.238;6.698;2023-03-20T04:40:36;99529.81;;;8.02;100.00
9899;BME280;4988;49.238;6.698;2023-03-20T04:43:02;99532.53;;;7.99;100.00
9899;BME280;4988;49.238;6.698;2023-03-20T04:45:27;99535.34;;;7.95;100.00
9899;BME280;4988;49.238;6.698;2023-03-20T04:47:52;99537.09;;;7.96;100.00
9899;BME280;4988;49.238;6.698;2023-03-20T04:50:18;99541.63;;;7.92;100.00
9899;BME280;4988;49.238;6.698;2023-03-20T04:52:43;99542.44;;;7.94;100.00
9899;BME280;4988;49.238;6.698;2023-03-20T04:55:08;99547.72;;;7.96;100.00
9899;BME280;4988;49.238;6.698;2023-03-20T04:57:34;99556.56;;;7.95;100.00
9899;BME280;4988;49.238;6.698;2023-03-20T04:59:59;99552.13;;;7.95;100.00
9899;BME280;4988;49.238;6.698;2023-03-20T05:02:24;99550.19;;;8.02;100.00
9899;BME280;4988;49.238;6.698;2023-03-20T05:04:51;99550.84;;;8.09;100.00
9899;BME280;4988;49.238;6.698;2023-03-20T05:07:16;99553.44;;;8.12;100.00
9899;BME280;4988;49.238;6.698;2023-03-20T05:09:42;99558.63;;;8.15;100.00
9899;BME280;4988;49.238;6.698;2023-03-20T05:12:08;99558.63;;;8.15;100.00
9899;BME280;4988;49.238;6.698;2023-03-20T05:14:33;99557.94;;;8.08;100.00
9899;BME280;4988;49.238;6.698;2023-03-20T05:16:59;99568.84;;;7.97;100.00
9899;BME280;4988;49.238;6.698;2023-03-20T05:19:24;99578.63;;;7.95;100.00
9899;BME280;4988;49.238;6.698;2023-03-20T05:21:50;99582.25;;;7.93;100.00
9899;BME280;4988;49.238;6.698;2023-03-20T05:24:15;99575.06;;;7.96;100.00
9899;BME280;4988;49.238;6.698;2023-03-20T05:26:40;99561.69;;;8.01;100.00
9899;BME280;4988;49.238;6.698;2023-03-20T05:29:06;99562.47;;;8.04;100.00
9899;BME280;4988;49.238;6.698;2023-03-20T05:31:31;99556.41;;;7.99;100.00
9899;BME280;4988;49.238;6.698;2023-03-20T05:33:56;99553.00;;;7.96;100.00
9899;BME280;4988;49.238;6.698;2023-03-20T05:36:22;99559.13;;;7.98;100.00
9899;BME280;4988;49.238;6.698;2023-03-20T05:38:47;99564.47;;;7.96;100.00
9899;BME280;4988;49.238;6.698;2023-03-20T05:41:12;99557.41;;;7.95;100.00
9899;BME280;4988;49.238;6.698;2023-03-20T05:43:38;99560.00;;;7.98;100.00
9899;BME280;4988;49.238;6.698;2023-03-20T05:46:03;99565.50;;;7.91;100.00
9899;BME280;4988;49.238;6.698;2023-03-20T05:48:29;99585.13;;;7.83;100.00
9899;BME280;4988;49.238;6.698;2023-03-20T05:50:54;99580.63;;;7.87;100.00
9899;BME280;4988;49.238;6.698;2023-03-20T05:53:20;99577.94;;;7.88;100.00
9899;BME280;4988;49.238;6.698;2023-03-20T05:55:45;99581.44;;;7.89;100.00
9899;BME280;4988;49.238;6.698;2023-03-20T05:58:11;99583.31;;;7.85;100.00
9899;BME280;4988;49.238;6.698;2023-03-20T06:00:37;99590.34;;;7.86;100.00
9899;BME280;4988;49.238;6.698;2023-03-20T06:03:03;99588.63;;;7.85;100.00
9899;BME280;4988;49.238;6.698;2023-03-20T06:05:30;99592.41;;;7.77;100.00
9899;BME280;4988;49.238;6.698;2023-03-20T06:07:56;99593.63;;;7.63;100.00
9899;BME280;4988;49.238;6.698;2023-03-20T06:10:21;99593.69;;;7.62;100.00
9899;BME280;4988;49.238;6.698;2023-03-20T06:12:46;99587.75;;;7.52;100.00
9899;BME280;4988;49.238;6.698;2023-03-20T06:15:12;99580.03;;;7.44;100.00
9899;BME280;4988;49.238;6.698;2023-03-20T06:17:37;99573.94;;;7.39;100.00
9899;BME280;4988;49.238;6.698;2023-03-20T06:20:03;99580.03;;;7.43;100.00
9899;BME280;4988;49.238;6.698;2023-03-20T06:22:29;99580.03;;;7.43;100.00
9899;BME280;4988;49.238;6.698;2023-03-20T06:24:55;99580.94;;;7.43;100.00
9899;BME280;4988;49.238;6.698;2023-03-20T06:27:21;99584.28;;;7.50;100.00
9899;BME280;4988;49.238;6.698;2023-03-20T06:29:46;99586.19;;;7.45;100.00
9899;BME280;4988;49.238;6.698;2023-03-20T06:32:12;99581.88;;;7.40;100.00
9899;BME280;4988;49.238;6.698;2023-03-20T06:34:39;99581.63;;;7.50;100.00
9899;BME280;4988;49.238;6.698;2023-03-20T06:37:04;99591.69;;;7.37;100.00
9899;BME280;4988;49.238;6.698;2023-03-20T06:39:30;99590.78;;;7.36;100.00
9899;BME280;4988;49.238;6.698;2023-03-20T06:41:55;99595.81;;;7.47;100.00
9899;BME280;4988;49.238;6.698;2023-03-20T06:44:21;99598.19;;;7.58;100.00
9899;BME280;4988;49.238;6.698;2023-03-20T06:46:46;99599.84;;;7.62;100.00
9899;BME280;4988;49.238;6.698;2023-03-20T06:49:11;99607.72;;;7.65;100.00
9899;BME280;4988;49.238;6.698;2023-03-20T06:51:37;99613.94;;;7.64;100.00
9899;BME280;4988;49.238;6.698;2023-03-20T06:54:03;99611.34;;;7.61;100.00
9899;BME280;4988;49.238;6.698;2023-03-20T06:56:28;99621.88;;;7.64;100.00
9899;BME280;4988;49.238;6.698;2023-03-20T06:58:55;99622.09;;;7.55;100.00
9899;BME280;4988;49.238;6.698;2023-03-20T07:01:20;99623.94;;;7.53;100.00
9899;BME280;4988;49.238;6.698;2023-03-20T07:03:45;99627.59;;;7.47;100.00
9899;BME280;4988;49.238;6.698;2023-03-20T07:06:11;99627.41;;;7.55;100.00
9899;BME280;4988;49.238;6.698;2023-03-20T07:08:38;99631.88;;;7.53;100.00
9899;BME280;4988;49.238;6.698;2023-03-20T07:11:03;99624.00;;;7.50;100.00
9899;BME280;4988;49.238;6.698;2023-03-20T07:13:30;99621.50;;;7.44;100.00
9899;BME280;4988;49.238;6.698;2023-03-20T07:15:56;99615.25;;;7.48;100.00
9899;BME280;4988;49.238;6.698;2023-03-20T07:18:23;99616.16;;;7.47;100.00
9899;BME280;4988;49.238;6.698;2023-03-20T07:20:51;99621.47;;;7.45;100.00
9899;BME280;4988;49.238;6.698;2023-03-20T07:23:16;99619.72;;;7.46;100.00
9899;BME280;4988;49.238;6.698;2023-03-20T07:25:41;99611.13;;;7.36;100.00
9899;BME280;4988;49.238;6.698;2023-03-20T07:28:07;99612.88;;;7.35;100.00
9899;BME280;4988;49.238;6.698;2023-03-20T07:30:33;99614.63;;;7.36;100.00
9899;BME280;4988;49.238;6.698;2023-03-20T07:32:58;99618.00;;;7.43;100.00
9899;BME280;4988;49.238;6.698;2023-03-20T07:35:23;99630.16;;;7.52;100.00
9899;BME280;4988;49.238;6.698;2023-03-20T07:37:49;99631.78;;;7.56;100.00
9899;BME280;4988;49.238;6.698;2023-03-20T07:40:14;99637.56;;;7.72;100.00
9899;BME280;4988;49.238;6.698;2023-03-20T07:42:40;99652.44;;;7.78;100.00
9899;BME280;4988;49.238;6.698;2023-03-20T07:45:06;99651.75;;;7.69;100.00
9899;BME280;4988;49.238;6.698;2023-03-20T07:47:32;99656.00;;;7.77;100.00
9899;BME280;4988;49.238;6.698;2023-03-20T07:49:57;99656.75;;;7.82;100.00
9899;BME280;4988;49.238;6.698;2023-03-20T07:52:22;99659.38;;;7.82;100.00
9899;BME280;4988;49.238;6.698;2023-03-20T07:54:47;99654.34;;;7.72;100.00
9899;BME280;4988;49.238;6.698;2023-03-20T07:57:13;99657.00;;;7.71;100.00
9899;BME280;4988;49.238;6.698;2023-03-20T07:59:38;99654.19;;;7.79;100.00
9899;BME280;4988;49.238;6.698;2023-03-20T08:02:03;99638.03;;;7.88;100.00
9899;BME280;4988;49.238;6.698;2023-03-20T08:04:29;99639.66;;;7.94;99.71
9899;BME280;4988;49.238;6.698;2023-03-20T08:06:54;99644.22;;;7.87;99.46
9899;BME280;4988;49.238;6.698;2023-03-20T08:09:19;99640.94;;;7.79;98.74
9899;BME280;4988;49.238;6.698;2023-03-20T08:11:45;99645.44;;;7.75;99.26
9899;BME280;4988;49.238;6.698;2023-03-20T08:14:11;99647.88;;;7.83;100.00
9899;BME280;4988;49.238;6.698;2023-03-20T08:16:36;99663.88;;;7.80;100.00
9899;BME280;4988;49.238;6.698;2023-03-20T08:19:01;99664.38;;;7.94;100.00
9899;BME280;4988;49.238;6.698;2023-03-20T08:21:30;99668.84;;;7.92;100.00
9899;BME280;4988;49.238;6.698;2023-03-20T08:23:55;99669.28;;;7.75;99.87
9899;BME280;4988;49.238;6.698;2023-03-20T08:26:21;99672.91;;;7.71;100.00
9899;BME280;4988;49.238;6.698;2023-03-20T08:28:47;99674.81;;;7.66;100.00
9899;BME280;4988;49.238;6.698;2023-03-20T08:31:13;99673.97;;;7.65;100.00
9899;BME280;4988;49.238;6.698;2023-03-20T08:33:38;99679.31;;;7.62;100.00
9899;BME280;4988;49.238;6.698;2023-03-20T08:36:04;99684.72;;;7.59;100.00
9899;BME280;4988;49.238;6.698;2023-03-20T08:38:30;99683.56;;;7.69;100.00
9899;BME280;4988;49.238;6.698;2023-03-20T08:40:55;99688.63;;;7.79;100.00
9899;BME280;4988;49.238;6.698;2023-03-20T08:43:20;99693.69;;;7.88;100.00
9899;BME280;4988;49.238;6.698;2023-03-20T08:45:46;99683.97;;;7.87;99.52
9899;BME280;4988;49.238;6.698;2023-03-20T08:48:12;99689.75;;;7.68;98.57
9899;BME280;4988;49.238;6.698;2023-03-20T08:50:38;99686.41;;;7.62;100.00
9899;BME280;4988;49.238;6.698;2023-03-20T08:53:04;99688.84;;;7.69;99.77
9899;BME280;4988;49.238;6.698;2023-03-20T08:55:30;99690.44;;;7.77;99.27
9899;BME280;4988;49.238;6.698;2023-03-20T08:57:55;99691.31;;;7.77;98.45
9899;BME280;4988;49.238;6.698;2023-03-20T09:00:22;99684.19;;;7.79;97.00
9899;BME280;4988;49.238;6.698;2023-03-20T09:02:49;99683.88;;;7.92;97.43
9899;BME280;4988;49.238;6.698;2023-03-20T09:05:14;99688.06;;;8.00;96.20
9899;BME280;4988;49.238;6.698;2023-03-20T09:07:40;99694.78;;;8.14;96.87
9899;BME280;4988;49.238;6.698;2023-03-20T09:12:31;99692.97;;;8.16;94.61
9899;BME280;4988;49.238;6.698;2023-03-20T09:14:57;99696.28;;;8.24;93.68
9899;BME280;4988;49.238;6.698;2023-03-20T09:17:23;99692.13;;;8.47;93.89
9899;BME280;4988;49.238;6.698;2023-03-20T09:19:48;99689.97;;;8.61;91.67
9899;BME280;4988;49.238;6.698;2023-03-20T09:22:14;99697.56;;;8.74;90.38
9899;BME280;4988;49.238;6.698;2023-03-20T09:24:42;99700.69;;;8.88;90.11
9899;BME280;4988;49.238;6.698;2023-03-20T09:27:08;99704.78;;;8.98;88.33
9899;BME280;4988;49.238;6.698;2023-03-20T09:29:33;99711.41;;;9.13;85.32
9899;BME280;4988;49.238;6.698;2023-03-20T09:31:59;99722.75;;;9.18;85.81
9899;BME280;4988;49.238;6.698;2023-03-20T09:34:24;99720.34;;;9.11;85.44
9899;BME280;4988;49.238;6.698;2023-03-20T09:36:49;99723.81;;;9.13;86.74
9899;BME280;4988;49.238;6.698;2023-03-20T09:39:15;99728.84;;;9.22;86.41
9899;BME280;4988;49.238;6.698;2023-03-20T09:41:46;99731.63;;;9.17;87.49
9899;BME280;4988;49.238;6.698;2023-03-20T09:47:08;99729.69;;;8.94;85.07
9899;BME280;4988;49.238;6.698;2023-03-20T09:53:04;99731.94;;;8.78;84.35
9899;BME280;4988;49.238;6.698;2023-03-20T09:55:36;99730.19;;;8.77;85.62
9899;BME280;4988;49.238;6.698;2023-03-20T09:58:23;99730.56;;;8.63;84.07
9899;BME280;4988;49.238;6.698;2023-03-20T10:00:49;99735.81;;;8.66;84.35
9899;BME280;4988;49.238;6.698;2023-03-20T10:03:19;99740.63;;;8.83;85.04
9899;BME280;4988;49.238;6.698;2023-03-20T10:05:50;99734.34;;;8.86;82.80
9899;BME280;4988;49.238;6.698;2023-03-20T10:08:20;99726.56;;;8.80;83.46
9899;BME280;4988;49.238;6.698;2023-03-20T10:16:39;99717.56;;;9.15;81.91
9899;BME280;4988;49.238;6.698;2023-03-20T10:21:44;99723.75;;;8.86;78.26
9899;BME280;4988;49.238;6.698;2023-03-20T10:26:43;99724.06;;;8.75;78.68
9899;BME280;4988;49.238;6.698;2023-03-20T10:32:10;99719.81;;;8.99;78.77
9899;BME280;4988;49.238;6.698;2023-03-20T10:37:56;99723.72;;;9.16;77.55
9899;BME280;4988;49.238;6.698;2023-03-20T10:42:53;99719.16;;;8.91;77.97
9899;BME280;4988;49.238;6.698;2023-03-20T10:48:08;99718.50;;;9.13;78.59
9899;BME280;4988;49.238;6.698;2023-03-20T10:50:50;99710.38;;;9.46;79.71
9899;BME280;4988;49.238;6.698;2023-03-20T10:53:54;99707.69;;;9.47;75.21
9899;BME280;4988;49.238;6.698;2023-03-20T10:56:29;99706.16;;;9.40;74.48
9899;BME280;4988;49.238;6.698;2023-03-20T10:59:23;99704.00;;;9.52;74.61
9899;BME280;4988;49.238;6.698;2023-03-20T11:01:48;99695.97;;;9.53;76.09
9899;BME280;4988;49.238;6.698;2023-03-20T11:04:14;99699.34;;;9.58;74.30
9899;BME280;4988;49.238;6.698;2023-03-20T11:06:58;99695.69;;;9.62;75.62
9899;BME280;4988;49.238;6.698;2023-03-20T11:09:25;99692.97;;;9.64;75.11
9899;BME280;4988;49.238;6.698;2023-03-20T11:11:56;99690.38;;;9.62;75.20
9899;BME280;4988;49.238;6.698;2023-03-20T11:14:25;99692.09;;;9.63;75.21
9899;BME280;4988;49.238;6.698;2023-03-20T11:16:54;99697.84;;;9.51;75.66
9899;BME280;4988;49.238;6.698;2023-03-20T11:19:21;99692.97;;;9.64;74.53
9899;BME280;4988;49.238;6.698;2023-03-20T11:21:56;99690.66;;;9.80;73.06
9899;BME280;4988;49.238;6.698;2023-03-20T11:24:41;99689.81;;;9.79;73.40
9899;BME280;4988;49.238;6.698;2023-03-20T11:27:13;99690.84;;;10.01;75.18
9899;BME280;4988;49.238;6.698;2023-03-20T11:29:41;99684.97;;;10.16;72.86
9899;BME280;4988;49.238;6.698;2023-03-20T11:32:26;99683.97;;;10.19;72.46
9899;BME280;4988;49.238;6.698;2023-03-20T11:34:52;99684.06;;;10.17;71.75
9899;BME280;4988;49.238;6.698;2023-03-20T11:37:27;99684.81;;;10.21;69.43
9899;BME280;4988;49.238;6.698;2023-03-20T11:42:26;99680.41;;;10.20;70.83
9899;BME280;4988;49.238;6.698;2023-03-20T11:45:01;99683.50;;;10.33;68.39
9899;BME280;4988;49.238;6.698;2023-03-20T11:47:31;99671.00;;;10.36;67.75
9899;BME280;4988;49.238;6.698;2023-03-20T11:50:00;99681.63;;;10.35;66.81
9899;BME280;4988;49.238;6.698;2023-03-20T11:52:34;99688.78;;;10.09;67.23
9899;BME280;4988;49.238;6.698;2023-03-20T11:55:11;99682.88;;;10.01;69.18
9899;BME280;4988;49.238;6.698;2023-03-20T11:57:47;99685.72;;;10.20;69.53
9899;BME280;4988;49.238;6.698;2023-03-20T12:02:42;99674.44;;;10.38;69.59
9899;BME280;4988;49.238;6.698;2023-03-20T12:05:38;99672.31;;;10.48;69.22
9899;BME280;4988;49.238;6.698;2023-03-20T12:08:09;99671.69;;;10.41;67.27
9899;BME280;4988;49.238;6.698;2023-03-20T12:10:40;99668.28;;;10.38;65.47
9899;BME280;4988;49.238;6.698;2023-03-20T12:13:16;99671.28;;;10.27;67.97
9899;BME280;4988;49.238;6.698;2023-03-20T12:15:46;99666.03;;;10.25;68.57
9899;BME280;4988;49.238;6.698;2023-03-20T12:21:11;99659.91;;;9.98;67.09
9899;BME280;4988;49.238;6.698;2023-03-20T12:24:01;99660.38;;;10.09;66.95
9899;BME280;4988;49.238;6.698;2023-03-20T12:26:35;99657.38;;;10.19;65.19
9899;BME280;4988;49.238;6.698;2023-03-20T12:29:21;99652.88;;;10.21;67.74
9899;BME280;4988;49.238;6.698;2023-03-20T12:32:01;99653.09;;;10.14;67.06
9899;BME280;4988;49.238;6.698;2023-03-20T12:34:41;99640.56;;;10.18;66.53
9899;BME280;4988;49.238;6.698;2023-03-20T12:37:10;99636.41;;;10.35;64.51
9899;BME280;4988;49.238;6.698;2023-03-20T12:39:49;99637.59;;;10.27;65.95
9899;BME280;4988;49.238;6.698;2023-03-20T12:45:14;99642.31;;;10.19;65.88
9899;BME280;4988;49.238;6.698;2023-03-20T12:50:35;99634.78;;;10.30;66.32
9899;BME280;4988;49.238;6.698;2023-03-20T13:01:02;99634.31;;;10.19;68.34
9899;BME280;4988;49.238;6.698;2023-03-20T13:03:33;99627.78;;;10.28;67.84
9899;BME280;4988;49.238;6.698;2023-03-20T13:11:07;99623.94;;;10.60;66.93
9899;BME280;4988;49.238;6.698;2023-03-20T13:13:43;99618.16;;;10.49;68.15
9899;BME280;4988;49.238;6.698;2023-03-20T13:16:30;99616.75;;;10.62;67.87
9899;BME280;4988;49.238;6.698;2023-03-20T13:19:10;99613.88;;;10.69;68.62
9899;BME280;4988;49.238;6.698;2023-03-20T13:22:13;99596.16;;;10.68;64.56
9899;BME280;4988;49.238;6.698;2023-03-20T13:25:51;99600.88;;;10.61;66.13
9899;BME280;4988;49.238;6.698;2023-03-20T13:27:58;99597.66;;;10.75;64.82
9899;BME280;4988;49.238;6.698;2023-03-20T13:30:34;99588.91;;;10.93;67.01
9899;BME280;4988;49.238;6.698;2023-03-20T13:33:33;99587.63;;;11.04;64.06
9899;BME280;4988;49.238;6.698;2023-03-20T13:36:24;99587.50;;;11.07;64.60
9899;BME280;4988;49.238;6.698;2023-03-20T13:39:05;99578.63;;;11.29;66.31
9899;BME280;4988;49.238;6.698;2023-03-20T13:41:35;99575.69;;;11.35;62.90
9899;BME280;4988;49.238;6.698;2023-03-20T13:44:03;99576.75;;;11.31;62.40
9899;BME280;4988;49.238;6.698;2023-03-20T13:46:49;99577.56;;;11.33;61.99
9899;BME280;4988;49.238;6.698;2023-03-20T13:49:35;99578.69;;;11.48;63.21
9899;BME280;4988;49.238;6.698;2023-03-20T13:52:14;99571.84;;;11.63;63.00
9899;BME280;4988;49.238;6.698;2023-03-20T13:54:55;99569.31;;;11.59;61.33
9899;BME280;4988;49.238;6.698;2023-03-20T14:02:44;99564.97;;;11.57;61.81
9899;BME280;4988;49.238;6.698;2023-03-20T14:05:22;99564.25;;;11.53;62.75
9899;BME280;4988;49.238;6.698;2023-03-20T14:07:55;99559.84;;;11.52;62.79
9899;BME280;4988;49.238;6.698;2023-03-20T14:13:05;99548.72;;;11.63;61.64
9899;BME280;4988;49.238;6.698;2023-03-20T14:15:33;99543.47;;;11.62;61.80
9899;BME280;4988;49.238;6.698;2023-03-20T14:18:05;99554.44;;;11.54;61.86
9899;BME280;4988;49.238;6.698;2023-03-20T14:20:32;99550.44;;;11.64;63.59
9899;BME280;4988;49.238;6.698;2023-03-20T14:22:58;99543.97;;;11.70;62.71
9899;BME280;4988;49.238;6.698;2023-03-20T14:25:24;99535.41;;;11.82;63.34
9899;BME280;4988;49.238;6.698;2023-03-20T14:28:04;99541.06;;;11.95;63.41
9899;BME280;4988;49.238;6.698;2023-03-20T14:33:05;99530.41;;;11.55;60.38
9899;BME280;4988;49.238;6.698;2023-03-20T14:35:41;99530.78;;;11.67;61.05
9899;BME280;4988;49.238;6.698;2023-03-20T14:38:17;99526.75;;;11.77;61.15
9899;BME280;4988;49.238;6.698;2023-03-20T14:43:51;99525.28;;;11.90;61.44
9899;BME280;4988;49.238;6.698;2023-03-20T14:52:29;99516.34;;;11.91;61.65
9899;BME280;4988;49.238;6.698;2023-03-20T14:56:00;99528.13;;;11.86;61.55
9899;BME280;4988;49.238;6.698;2023-03-20T14:58:03;99521.22;;;11.82;62.20
9899;BME280;4988;49.238;6.698;2023-03-20T15:00:33;99517.34;;;11.89;61.87
9899;BME280;4988;49.238;6.698;2023-03-20T15:03:08;99512.88;;;11.69;61.77
9899;BME280;4988;49.238;6.698;2023-03-20T15:08:24;99509.25;;;11.71;61.37
9899;BME280;4988;49.238;6.698;2023-03-20T15:10:57;99505.63;;;11.72;61.84
9899;BME280;4988;49.238;6.698;2023-03-20T15:13:24;99512.34;;;11.81;61.97
9899;BME280;4988;49.238;6.698;2023-03-20T15:15:58;99505.28;;;11.80;62.54
9899;BME280;4988;49.238;6.698;2023-03-20T15:18:27;99509.28;;;11.70;61.19
9899;BME280;4988;49.238;6.698;2023-03-20T15:20:56;99503.31;;;11.65;59.79
9899;BME280;4988;49.238;6.698;2023-03-20T15:23:22;99494.50;;;11.63;57.99
9899;BME280;4988;49.238;6.698;2023-03-20T15:25:48;99487.31;;;11.65;57.75
9899;BME280;4988;49.238;6.698;2023-03-20T15:28:24;99496.06;;;11.48;58.10
9899;BME280;4988;49.238;6.698;2023-03-20T15:30:51;99493.19;;;11.52;58.39
9899;BME280;4988;49.238;6.698;2023-03-20T15:33:45;99491.78;;;11.64;58.47